sensor_id;sensor_type;location;lat;lon;timestamp;P1;durP1;ratioP1;P2;durP2;ratioP2
33844;SDS011;20145;43.118;25.694;2023-06-26T00:02:16;1.38;;;1.25;;
33844;SDS011;20145;43.118;25.694;2023-06-26T00:04:42;1.63;;;1.52;;
33844;SDS011;20145;43.118;25.694;2023-06-26T00:07:10;2.97;;;1.90;;
33844;SDS011;20145;43.118;25.694;2023-06-26T00:09:36;2.63;;;2.42;;
33844;SDS011;20145;43.118;25.694;2023-06-26T00:12:01;2.70;;;2.50;;
33844;SDS011;20145;43.118;25.694;2023-06-26T00:14:27;2.95;;;2.75;;
33844;SDS011;20145;43.118;25.694;2023-06-26T00:16:53;3.22;;;2.80;;
33844;SDS011;20145;43.118;25.694;2023-06-26T00:19:19;3.65;;;2.50;;
33844;SDS011;20145;43.118;25.694;2023-06-26T00:21:44;2.75;;;2.45;;
33844;SDS011;20145;43.118;25.694;2023-06-26T00:24:12;3.85;;;2.78;;
33844;SDS011;20145;43.118;25.694;2023-06-26T00:26:38;3.70;;;2.95;;
33844;SDS011;20145;43.118;25.694;2023-06-26T00:29:04;4.50;;;3.17;;
33844;SDS011;20145;43.118;25.694;2023-06-26T00:31:30;4.20;;;3.10;;
33844;SDS011;20145;43.118;25.694;2023-06-26T00:33:56;5.53;;;3.90;;
33844;SDS011;20145;43.118;25.694;2023-06-26T00:36:22;4.40;;;4.00;;
33844;SDS011;20145;43.118;25.694;2023-06-26T00:38:51;4.63;;;4.07;;
33844;SDS011;20145;43.118;25.694;2023-06-26T00:41:17;4.60;;;3.55;;
33844;SDS011;20145;43.118;25.694;2023-06-26T00:43:43;6.10;;;4.22;;
33844;SDS011;20145;43.118;25.694;2023-06-26T00:46:09;4.43;;;4.03;;
33844;SDS011;20145;43.118;25.694;2023-06-26T00:48:37;6.45;;;3.97;;
33844;SDS011;20145;43.118;25.694;2023-06-26T00:51:04;4.90;;;4.40;;
33844;SDS011;20145;43.118;25.694;2023-06-26T00:53:30;4.13;;;3.72;;
33844;SDS011;20145;43.118;25.694;2023-06-26T00:55:57;4.80;;;3.72;;
33844;SDS011;20145;43.118;25.694;2023-06-26T00:58:24;5.38;;;3.60;;
33844;SDS011;20145;43.118;25.694;2023-06-26T01:00:53;5.13;;;4.18;;
33844;SDS011;20145;43.118;25.694;2023-06-26T01:03:19;4.13;;;3.53;;
33844;SDS011;20145;43.118;25.694;2023-06-26T01:05:46;5.38;;;3.40;;
33844;SDS011;20145;43.118;25.694;2023-06-26T01:08:15;3.97;;;3.20;;
33844;SDS011;20145;43.118;25.694;2023-06-26T01:10:42;3.88;;;3.30;;
33844;SDS011;20145;43.118;25.694;2023-06-26T01:13:07;5.70;;;3.42;;
33844;SDS011;20145;43.118;25.694;2023-06-26T01:15:34;5.18;;;3.47;;
33844;SDS011;20145;43.118;25.694;2023-06-26T01:18:00;7.55;;;4.07;;
33844;SDS011;20145;43.118;25.694;2023-06-26T01:20:32;8.63;;;3.90;;
33844;SDS011;20145;43.118;25.694;2023-06-26T01:28:15;8.20;;;5.03;;
33844;SDS011;20145;43.118;25.694;2023-06-26T01:30:43;6.22;;;4.93;;
33844;SDS011;20145;43.118;25.694;2023-06-26T01:33:13;8.15;;;4.53;;
33844;SDS011;20145;43.118;25.694;2023-06-26T01:35:39;7.40;;;4.93;;
33844;SDS011;20145;43.118;25.694;2023-06-26T01:38:18;6.35;;;4.43;;
33844;SDS011;20145;43.118;25.694;2023-06-26T01:40:45;5.18;;;4.68;;
33844;SDS011;20145;43.118;25.694;2023-06-26T01:43:34;6.45;;;4.78;;
33844;SDS011;20145;43.118;25.694;2023-06-26T01:48:49;5.43;;;4.93;;
33844;SDS011;20145;43.118;25.694;2023-06-26T01:51:19;5.50;;;4.80;;
33844;SDS011;20145;43.118;25.694;2023-06-26T01:53:53;5.82;;;4.50;;
33844;SDS011;20145;43.118;25.694;2023-06-26T01:56:21;6.45;;;4.38;;
33844;SDS011;20145;43.118;25.694;2023-06-26T01:58:49;4.95;;;4.45;;
33844;SDS011;20145;43.118;25.694;2023-06-26T02:01:20;4.63;;;4.03;;
33844;SDS011;20145;43.118;25.694;2023-06-26T02:03:47;7.00;;;4.47;;
33844;SDS011;20145;43.118;25.694;2023-06-26T02:06:13;5.03;;;4.60;;
33844;SDS011;20145;43.118;25.694;2023-06-26T02:08:39;6.78;;;4.65;;
33844;SDS011;20145;43.118;25.694;2023-06-26T02:11:05;4.53;;;4.10;;
33844;SDS011;20145;43.118;25.694;2023-06-26T02:13:31;6.05;;;4.70;;
33844;SDS011;20145;43.118;25.694;2023-06-26T02:15:57;4.97;;;4.57;;
33844;SDS011;20145;43.118;25.694;2023-06-26T02:18:23;5.38;;;4.85;;
33844;SDS011;20145;43.118;25.694;2023-06-26T02:20:49;6.68;;;5.32;;
33844;SDS011;20145;43.118;25.694;2023-06-26T02:23:15;4.70;;;4.28;;
33844;SDS011;20145;43.118;25.694;2023-06-26T02:25:40;6.68;;;4.57;;
33844;SDS011;20145;43.118;25.694;2023-06-26T02:28:06;7.65;;;5.13;;
33844;SDS011;20145;43.118;25.694;2023-06-26T02:30:31;7.18;;;4.63;;
33844;SDS011;20145;43.118;25.694;2023-06-26T02:32:57;5.28;;;4.78;;
33844;SDS011;20145;43.118;25.694;2023-06-26T02:35:23;5.28;;;4.78;;
33844;SDS011;20145;43.118;25.694;2023-06-26T02:37:48;10.18;;;5.47;;
33844;SDS011;20145;43.118;25.694;2023-06-26T02:40:14;8.02;;;5.10;;
33844;SDS011;20145;43.118;25.694;2023-06-26T02:42:40;7.63;;;5.95;;
33844;SDS011;20145;43.118;25.694;2023-06-26T02:45:05;8.80;;;5.60;;
33844;SDS011;20145;43.118;25.694;2023-06-26T02:47:31;5.80;;;5.30;;
33844;SDS011;20145;43.118;25.694;2023-06-26T02:49:57;8.88;;;4.88;;
33844;SDS011;20145;43.118;25.694;2023-06-26T02:52:22;7.85;;;6.00;;
33844;SDS011;20145;43.118;25.694;2023-06-26T02:54:48;7.53;;;4.88;;
33844;SDS011;20145;43.118;25.694;2023-06-26T02:57:14;6.22;;;5.63;;
33844;SDS011;20145;43.118;25.694;2023-06-26T02:59:39;6.25;;;5.60;;
33844;SDS011;20145;43.118;25.694;2023-06-26T03:02:05;5.15;;;4.75;;
33844;SDS011;20145;43.118;25.694;2023-06-26T03:04:31;8.52;;;5.20;;
33844;SDS011;20145;43.118;25.694;2023-06-26T03:06:56;6.75;;;5.05;;
33844;SDS011;20145;43.118;25.694;2023-06-26T03:09:22;6.90;;;5.70;;
33844;SDS011;20145;43.118;25.694;2023-06-26T03:11:47;7.75;;;5.22;;
33844;SDS011;20145;43.118;25.694;2023-06-26T03:14:13;9.27;;;5.30;;
33844;SDS011;20145;43.118;25.694;2023-06-26T03:16:39;10.07;;;6.07;;
33844;SDS011;20145;43.118;25.694;2023-06-26T03:19:05;7.53;;;4.85;;
33844;SDS011;20145;43.118;25.694;2023-06-26T03:21:32;6.18;;;5.57;;
33844;SDS011;20145;43.118;25.694;2023-06-26T03:23:57;7.93;;;5.40;;
33844;SDS011;20145;43.118;25.694;2023-06-26T03:26:23;10.63;;;7.22;;
33844;SDS011;20145;43.118;25.694;2023-06-26T03:28:52;9.00;;;5.93;;
33844;SDS011;20145;43.118;25.694;2023-06-26T03:31:19;7.40;;;6.50;;
33844;SDS011;20145;43.118;25.694;2023-06-26T03:33:45;6.63;;;5.97;;
33844;SDS011;20145;43.118;25.694;2023-06-26T03:36:11;7.78;;;6.47;;
33844;SDS011;20145;43.118;25.694;2023-06-26T03:38:37;8.68;;;6.30;;
33844;SDS011;20145;43.118;25.694;2023-06-26T03:41:02;9.07;;;7.18;;
33844;SDS011;20145;43.118;25.694;2023-06-26T03:43:28;8.88;;;7.10;;
33844;SDS011;20145;43.118;25.694;2023-06-26T03:45:54;10.85;;;9.75;;
33844;SDS011;20145;43.118;25.694;2023-06-26T03:48:19;12.02;;;9.23;;
33844;SDS011;20145;43.118;25.694;2023-06-26T03:50:45;14.00;;;9.95;;
33844;SDS011;20145;43.118;25.694;2023-06-26T03:53:11;11.88;;;9.82;;
33844;SDS011;20145;43.118;25.694;2023-06-26T03:55:37;13.60;;;10.27;;
33844;SDS011;20145;43.118;25.694;2023-06-26T03:58:03;12.55;;;11.25;;
33844;SDS011;20145;43.118;25.694;2023-06-26T04:00:29;15.23;;;12.07;;
33844;SDS011;20145;43.118;25.694;2023-06-26T04:02:55;15.18;;;12.00;;
33844;SDS011;20145;43.118;25.694;2023-06-26T04:05:20;13.82;;;12.32;;
33844;SDS011;20145;43.118;25.694;2023-06-26T04:07:49;14.48;;;12.55;;
33844;SDS011;20145;43.118;25.694;2023-06-26T04:10:15;21.65;;;14.10;;
33844;SDS011;20145;43.118;25.694;2023-06-26T04:12:41;16.52;;;14.30;;
33844;SDS011;20145;43.118;25.694;2023-06-26T04:15:06;21.02;;;14.05;;
33844;SDS011;20145;43.118;25.694;2023-06-26T04:17:32;14.77;;;12.93;;
33844;SDS011;20145;43.118;25.694;2023-06-26T04:19:58;18.20;;;14.10;;
33844;SDS011;20145;43.118;25.694;2023-06-26T04:22:24;16.52;;;13.85;;
33844;SDS011;20145;43.118;25.694;2023-06-26T04:24:52;16.63;;;13.50;;
33844;SDS011;20145;43.118;25.694;2023-06-26T04:27:18;19.80;;;13.55;;
33844;SDS011;20145;43.118;25.694;2023-06-26T04:29:44;15.98;;;13.75;;
33844;SDS011;20145;43.118;25.694;2023-06-26T04:32:09;16.27;;;14.55;;
33844;SDS011;20145;43.118;25.694;2023-06-26T04:34:35;15.30;;;13.60;;
33844;SDS011;20145;43.118;25.694;2023-06-26T04:37:06;21.55;;;13.48;;
33844;SDS011;20145;43.118;25.694;2023-06-26T04:39:31;19.90;;;13.63;;
33844;SDS011;20145;43.118;25.694;2023-06-26T04:41:57;22.63;;;14.70;;
33844;SDS011;20145;43.118;25.694;2023-06-26T04:44:23;16.63;;;14.68;;
33844;SDS011;20145;43.118;25.694;2023-06-26T04:46:49;18.90;;;13.68;;
33844;SDS011;20145;43.118;25.694;2023-06-26T04:49:17;16.50;;;13.43;;
33844;SDS011;20145;43.118;25.694;2023-06-26T04:51:43;18.05;;;12.82;;
33844;SDS011;20145;43.118;25.694;2023-06-26T04:54:12;16.33;;;14.63;;
33844;SDS011;20145;43.118;25.694;2023-06-26T04:56:38;21.30;;;13.52;;
33844;SDS011;20145;43.118;25.694;2023-06-26T04:59:06;19.58;;;13.57;;
33844;SDS011;20145;43.118;25.694;2023-06-26T05:01:32;18.05;;;13.63;;
33844;SDS011;20145;43.118;25.694;2023-06-26T05:03:58;17.38;;;12.98;;
33844;SDS011;20145;43.118;25.694;2023-06-26T05:06:25;14.95;;;13.20;;
33844;SDS011;20145;43.118;25.694;2023-06-26T05:08:50;16.80;;;13.80;;
33844;SDS011;20145;43.118;25.694;2023-06-26T05:11:17;17.25;;;14.02;;
33844;SDS011;20145;43.118;25.694;2023-06-26T05:13:43;18.40;;;12.82;;
33844;SDS011;20145;43.118;25.694;2023-06-26T05:16:10;16.70;;;13.30;;
33844;SDS011;20145;43.118;25.694;2023-06-26T05:18:36;21.08;;;13.43;;
33844;SDS011;20145;43.118;25.694;2023-06-26T05:21:03;16.90;;;13.90;;
33844;SDS011;20145;43.118;25.694;2023-06-26T05:23:30;15.13;;;13.55;;
33844;SDS011;20145;43.118;25.694;2023-06-26T05:25:57;17.70;;;13.30;;
33844;SDS011;20145;43.118;25.694;2023-06-26T05:28:25;13.55;;;12.02;;
33844;SDS011;20145;43.118;25.694;2023-06-26T05:30:58;15.77;;;11.55;;
33844;SDS011;20145;43.118;25.694;2023-06-26T05:33:25;18.48;;;12.05;;
33844;SDS011;20145;43.118;25.694;2023-06-26T05:35:52;16.90;;;11.00;;
33844;SDS011;20145;43.118;25.694;2023-06-26T05:38:23;15.13;;;10.15;;
33844;SDS011;20145;43.118;25.694;2023-06-26T05:40:49;13.93;;;9.98;;
33844;SDS011;20145;43.118;25.694;2023-06-26T05:43:15;17.02;;;11.02;;
33844;SDS011;20145;43.118;25.694;2023-06-26T05:45:40;17.75;;;11.52;;
33844;SDS011;20145;43.118;25.694;2023-06-26T05:48:06;16.40;;;11.25;;
33844;SDS011;20145;43.118;25.694;2023-06-26T05:50:32;12.73;;;11.25;;
33844;SDS011;20145;43.118;25.694;2023-06-26T05:52:59;16.15;;;10.32;;
33844;SDS011;20145;43.118;25.694;2023-06-26T05:55:28;17.33;;;11.15;;
33844;SDS011;20145;43.118;25.694;2023-06-26T05:57:54;12.57;;;9.55;;
33844;SDS011;20145;43.118;25.694;2023-06-26T06:00:23;13.02;;;8.75;;
33844;SDS011;20145;43.118;25.694;2023-06-26T06:02:51;14.70;;;9.02;;
33844;SDS011;20145;43.118;25.694;2023-06-26T06:05:19;12.65;;;8.68;;
33844;SDS011;20145;43.118;25.694;2023-06-26T06:07:48;12.43;;;9.30;;
33844;SDS011;20145;43.118;25.694;2023-06-26T06:10:14;12.88;;;8.77;;
33844;SDS011;20145;43.118;25.694;2023-06-26T06:12:39;12.68;;;7.95;;
33844;SDS011;20145;43.118;25.694;2023-06-26T06:15:05;11.02;;;8.52;;
33844;SDS011;20145;43.118;25.694;2023-06-26T06:17:32;11.65;;;7.90;;
33844;SDS011;20145;43.118;25.694;2023-06-26T06:19:57;9.48;;;8.57;;
33844;SDS011;20145;43.118;25.694;2023-06-26T06:22:23;9.52;;;8.02;;
33844;SDS011;20145;43.118;25.694;2023-06-26T06:24:49;10.00;;;8.43;;
33844;SDS011;20145;43.118;25.694;2023-06-26T06:27:16;13.88;;;9.15;;
33844;SDS011;20145;43.118;25.694;2023-06-26T06:29:41;10.27;;;8.48;;
33844;SDS011;20145;43.118;25.694;2023-06-26T06:32:07;11.35;;;8.88;;
33844;SDS011;20145;43.118;25.694;2023-06-26T06:34:33;12.75;;;8.57;;
33844;SDS011;20145;43.118;25.694;2023-06-26T06:36:58;13.48;;;8.68;;
33844;SDS011;20145;43.118;25.694;2023-06-26T06:39:24;14.95;;;9.48;;
33844;SDS011;20145;43.118;25.694;2023-06-26T06:41:50;12.63;;;7.88;;
33844;SDS011;20145;43.118;25.694;2023-06-26T06:44:15;8.65;;;7.75;;
33844;SDS011;20145;43.118;25.694;2023-06-26T06:46:41;9.60;;;7.68;;
33844;SDS011;20145;43.118;25.694;2023-06-26T06:49:07;9.85;;;7.80;;
33844;SDS011;20145;43.118;25.694;2023-06-26T06:51:33;10.18;;;7.88;;
33844;SDS011;20145;43.118;25.694;2023-06-26T06:53:59;9.90;;;7.65;;
33844;SDS011;20145;43.118;25.694;2023-06-26T06:56:24;11.00;;;6.30;;
33844;SDS011;20145;43.118;25.694;2023-06-26T06:58:50;9.40;;;6.97;;
33844;SDS011;20145;43.118;25.694;2023-06-26T07:01:15;9.02;;;6.88;;
33844;SDS011;20145;43.118;25.694;2023-06-26T07:03:41;9.57;;;6.72;;
33844;SDS011;20145;43.118;25.694;2023-06-26T07:06:07;8.27;;;6.65;;
33844;SDS011;20145;43.118;25.694;2023-06-26T07:08:33;9.48;;;6.57;;
33844;SDS011;20145;43.118;25.694;2023-06-26T07:10:58;10.27;;;6.53;;
33844;SDS011;20145;43.118;25.694;2023-06-26T07:13:24;9.80;;;6.65;;
33844;SDS011;20145;43.118;25.694;2023-06-26T07:15:50;8.25;;;6.80;;
33844;SDS011;20145;43.118;25.694;2023-06-26T07:18:16;9.13;;;6.60;;
33844;SDS011;20145;43.118;25.694;2023-06-26T07:20:42;8.05;;;6.63;;
33844;SDS011;20145;43.118;25.694;2023-06-26T07:23:07;7.63;;;6.75;;
33844;SDS011;20145;43.118;25.694;2023-06-26T07:25:33;9.05;;;7.10;;
33844;SDS011;20145;43.118;25.694;2023-06-26T07:27:59;11.88;;;7.80;;
33844;SDS011;20145;43.118;25.694;2023-06-26T07:30:24;11.13;;;7.47;;
33844;SDS011;20145;43.118;25.694;2023-06-26T07:32:50;12.73;;;7.63;;
33844;SDS011;20145;43.118;25.694;2023-06-26T07:37:59;11.23;;;7.30;;
33844;SDS011;20145;43.118;25.694;2023-06-26T07:40:31;13.15;;;6.85;;
33844;SDS011;20145;43.118;25.694;2023-06-26T07:42:57;13.27;;;7.65;;
33844;SDS011;20145;43.118;25.694;2023-06-26T07:45:23;18.02;;;14.45;;
33844;SDS011;20145;43.118;25.694;2023-06-26T07:47:49;14.10;;;7.75;;
33844;SDS011;20145;43.118;25.694;2023-06-26T07:50:14;9.68;;;6.75;;
33844;SDS011;20145;43.118;25.694;2023-06-26T07:52:47;11.77;;;8.25;;
33844;SDS011;20145;43.118;25.694;2023-06-26T07:55:12;8.20;;;7.40;;
33844;SDS011;20145;43.118;25.694;2023-06-26T07:57:38;8.75;;;7.47;;
33844;SDS011;20145;43.118;25.694;2023-06-26T08:00:04;9.25;;;7.38;;
33844;SDS011;20145;43.118;25.694;2023-06-26T08:02:32;10.13;;;7.03;;
33844;SDS011;20145;43.118;25.694;2023-06-26T08:04:58;12.98;;;7.30;;
33844;SDS011;20145;43.118;25.694;2023-06-26T08:07:23;9.18;;;7.07;;
33844;SDS011;20145;43.118;25.694;2023-06-26T08:09:49;8.93;;;6.47;;
33844;SDS011;20145;43.118;25.694;2023-06-26T08:12:15;9.18;;;6.60;;
33844;SDS011;20145;43.118;25.694;2023-06-26T08:14:40;7.05;;;6.32;;
33844;SDS011;20145;43.118;25.694;2023-06-26T08:17:06;8.93;;;6.15;;
33844;SDS011;20145;43.118;25.694;2023-06-26T08:19:31;6.95;;;5.55;;
33844;SDS011;20145;43.118;25.694;2023-06-26T08:21:57;9.98;;;6.22;;
33844;SDS011;20145;43.118;25.694;2023-06-26T08:24:23;8.70;;;6.70;;
33844;SDS011;20145;43.118;25.694;2023-06-26T08:26:48;7.38;;;6.15;;
33844;SDS011;20145;43.118;25.694;2023-06-26T08:29:14;8.32;;;6.15;;
33844;SDS011;20145;43.118;25.694;2023-06-26T08:31:40;13.27;;;6.90;;
33844;SDS011;20145;43.118;25.694;2023-06-26T08:34:07;8.43;;;6.35;;
33844;SDS011;20145;43.118;25.694;2023-06-26T08:36:33;11.63;;;6.57;;
33844;SDS011;20145;43.118;25.694;2023-06-26T08:38:59;9.57;;;6.85;;
33844;SDS011;20145;43.118;25.694;2023-06-26T08:41:25;7.40;;;6.30;;
33844;SDS011;20145;43.118;25.694;2023-06-26T08:43:50;8.63;;;6.65;;
33844;SDS011;20145;43.118;25.694;2023-06-26T08:46:18;9.70;;;6.28;;
33844;SDS011;20145;43.118;25.694;2023-06-26T08:48:55;11.82;;;6.50;;
33844;SDS011;20145;43.118;25.694;2023-06-26T08:51:23;9.07;;;5.90;;
33844;SDS011;20145;43.118;25.694;2023-06-26T08:53:57;7.60;;;5.90;;
33844;SDS011;20145;43.118;25.694;2023-06-26T08:56:27;7.25;;;6.28;;
33844;SDS011;20145;43.118;25.694;2023-06-26T08:59:05;7.80;;;5.70;;
33844;SDS011;20145;43.118;25.694;2023-06-26T09:01:31;10.18;;;5.90;;
33844;SDS011;20145;43.118;25.694;2023-06-26T09:03:57;9.43;;;6.13;;
33844;SDS011;20145;43.118;25.694;2023-06-26T09:06:23;11.18;;;6.20;;
33844;SDS011;20145;43.118;25.694;2023-06-26T09:08:48;11.02;;;5.88;;
33844;SDS011;20145;43.118;25.694;2023-06-26T09:11:15;7.35;;;6.05;;
33844;SDS011;20145;43.118;25.694;2023-06-26T09:13:40;11.35;;;6.07;;
33844;SDS011;20145;43.118;25.694;2023-06-26T09:16:07;12.15;;;6.53;;
33844;SDS011;20145;43.118;25.694;2023-06-26T09:18:33;7.82;;;6.30;;
33844;SDS011;20145;43.118;25.694;2023-06-26T09:20:59;8.48;;;5.90;;
33844;SDS011;20145;43.118;25.694;2023-06-26T09:23:25;10.45;;;6.35;;
33844;SDS011;20145;43.118;25.694;2023-06-26T09:25:51;11.80;;;6.50;;
33844;SDS011;20145;43.118;25.694;2023-06-26T09:28:17;8.55;;;6.07;;
33844;SDS011;20145;43.118;25.694;2023-06-26T09:30:44;9.60;;;5.75;;
33844;SDS011;20145;43.118;25.694;2023-06-26T09:33:17;11.30;;;6.43;;
33844;SDS011;20145;43.118;25.694;2023-06-26T09:35:46;10.35;;;6.30;;
33844;SDS011;20145;43.118;25.694;2023-06-26T09:38:13;7.75;;;5.97;;
33844;SDS011;20145;43.118;25.694;2023-06-26T09:40:40;7.63;;;5.65;;
33844;SDS011;20145;43.118;25.694;2023-06-26T09:43:06;6.97;;;5.82;;
33844;SDS011;20145;43.118;25.694;2023-06-26T09:45:35;8.73;;;5.93;;
33844;SDS011;20145;43.118;25.694;2023-06-26T09:48:04;7.13;;;5.90;;
33844;SDS011;20145;43.118;25.694;2023-06-26T09:50:34;9.85;;;6.40;;
33844;SDS011;20145;43.118;25.694;2023-06-26T09:53:10;7.68;;;6.35;;
33844;SDS011;20145;43.118;25.694;2023-06-26T09:55:39;8.60;;;6.28;;
33844;SDS011;20145;43.118;25.694;2023-06-26T09:58:09;10.90;;;6.25;;
33844;SDS011;20145;43.118;25.694;2023-06-26T10:00:39;10.85;;;6.28;;
33844;SDS011;20145;43.118;25.694;2023-06-26T10:03:06;11.77;;;6.93;;
33844;SDS011;20145;43.118;25.694;2023-06-26T10:05:32;11.77;;;6.55;;
33844;SDS011;20145;43.118;25.694;2023-06-26T10:07:59;12.88;;;6.88;;
33844;SDS011;20145;43.118;25.694;2023-06-26T10:10:27;10.25;;;6.55;;
33844;SDS011;20145;43.118;25.694;2023-06-26T10:12:55;8.95;;;6.75;;
33844;SDS011;20145;43.118;25.694;2023-06-26T10:15:26;10.93;;;6.38;;
33844;SDS011;20145;43.118;25.694;2023-06-26T10:17:55;15.40;;;6.85;;
33844;SDS011;20145;43.118;25.694;2023-06-26T10:20:22;8.68;;;6.13;;
33844;SDS011;20145;43.118;25.694;2023-06-26T10:22:49;12.65;;;5.82;;
33844;SDS011;20145;43.118;25.694;2023-06-26T10:25:18;7.78;;;6.20;;
33844;SDS011;20145;43.118;25.694;2023-06-26T10:27:49;7.97;;;6.53;;
33844;SDS011;20145;43.118;25.694;2023-06-26T10:30:20;11.30;;;5.95;;
33844;SDS011;20145;43.118;25.694;2023-06-26T10:32:49;10.32;;;5.55;;
33844;SDS011;20145;43.118;25.694;2023-06-26T10:35:15;10.23;;;5.78;;
33844;SDS011;20145;43.118;25.694;2023-06-26T10:40:09;7.80;;;5.05;;
33844;SDS011;20145;43.118;25.694;2023-06-26T10:42:36;5.35;;;4.85;;
33844;SDS011;20145;43.118;25.694;2023-06-26T10:45:09;7.18;;;4.80;;
33844;SDS011;20145;43.118;25.694;2023-06-26T10:47:37;10.10;;;4.97;;
33844;SDS011;20145;43.118;25.694;2023-06-26T10:53:07;5.53;;;4.32;;
33844;SDS011;20145;43.118;25.694;2023-06-26T10:55:34;8.00;;;4.38;;
33844;SDS011;20145;43.118;25.694;2023-06-26T10:58:01;5.55;;;4.28;;
33844;SDS011;20145;43.118;25.694;2023-06-26T11:00:27;9.45;;;5.00;;
33844;SDS011;20145;43.118;25.694;2023-06-26T11:02:53;8.40;;;4.78;;
33844;SDS011;20145;43.118;25.694;2023-06-26T11:05:29;6.47;;;4.28;;
33844;SDS011;20145;43.118;25.694;2023-06-26T11:10:53;7.55;;;4.63;;
33844;SDS011;20145;43.118;25.694;2023-06-26T11:13:24;9.32;;;5.00;;
33844;SDS011;20145;43.118;25.694;2023-06-26T11:15:51;8.68;;;4.68;;
33844;SDS011;20145;43.118;25.694;2023-06-26T11:18:17;10.50;;;4.10;;
33844;SDS011;20145;43.118;25.694;2023-06-26T11:20:42;5.28;;;3.47;;
33844;SDS011;20145;43.118;25.694;2023-06-26T11:23:08;5.82;;;3.80;;
33844;SDS011;20145;43.118;25.694;2023-06-26T11:25:35;6.22;;;4.35;;
33844;SDS011;20145;43.118;25.694;2023-06-26T11:28:02;4.63;;;4.03;;
33844;SDS011;20145;43.118;25.694;2023-06-26T11:30:35;8.52;;;4.47;;
33844;SDS011;20145;43.118;25.694;2023-06-26T11:33:07;10.13;;;4.30;;
33844;SDS011;20145;43.118;25.694;2023-06-26T11:35:34;6.95;;;3.72;;
33844;SDS011;20145;43.118;25.694;2023-06-26T11:38:01;6.45;;;4.18;;
33844;SDS011;20145;43.118;25.694;2023-06-26T11:40:34;5.30;;;4.05;;
33844;SDS011;20145;43.118;25.694;2023-06-26T11:43:01;5.57;;;4.03;;
33844;SDS011;20145;43.118;25.694;2023-06-26T11:45:40;8.27;;;4.25;;
33844;SDS011;20145;43.118;25.694;2023-06-26T11:48:08;7.93;;;4.13;;
33844;SDS011;20145;43.118;25.694;2023-06-26T11:50:36;6.28;;;3.70;;
33844;SDS011;20145;43.118;25.694;2023-06-26T11:53:03;6.50;;;4.22;;
33844;SDS011;20145;43.118;25.694;2023-06-26T11:55:40;5.80;;;3.90;;
33844;SDS011;20145;43.118;25.694;2023-06-26T11:58:09;9.52;;;4.13;;
33844;SDS011;20145;43.118;25.694;2023-06-26T12:00:34;5.88;;;4.63;;
33844;SDS011;20145;43.118;25.694;2023-06-26T12:03:00;10.00;;;4.30;;
33844;SDS011;20145;43.118;25.694;2023-06-26T12:05:29;7.22;;;4.07;;
33844;SDS011;20145;43.118;25.694;2023-06-26T12:07:55;5.75;;;4.38;;
33844;SDS011;20145;43.118;25.694;2023-06-26T12:10:23;6.45;;;4.10;;
33844;SDS011;20145;43.118;25.694;2023-06-26T12:12:50;6.38;;;4.03;;
33844;SDS011;20145;43.118;25.694;2023-06-26T12:17:51;10.65;;;4.60;;
33844;SDS011;20145;43.118;25.694;2023-06-26T12:20:18;8.10;;;4.40;;
33844;SDS011;20145;43.118;25.694;2023-06-26T12:22:48;6.50;;;3.85;;
33844;SDS011;20145;43.118;25.694;2023-06-26T12:25:14;7.85;;;4.05;;
33844;SDS011;20145;43.118;25.694;2023-06-26T12:27:40;5.45;;;3.67;;
33844;SDS011;20145;43.118;25.694;2023-06-26T12:30:08;5.65;;;4.22;;
33844;SDS011;20145;43.118;25.694;2023-06-26T12:32:34;10.63;;;4.40;;
33844;SDS011;20145;43.118;25.694;2023-06-26T12:35:00;6.35;;;3.78;;
33844;SDS011;20145;43.118;25.694;2023-06-26T12:37:26;8.05;;;3.80;;
33844;SDS011;20145;43.118;25.694;2023-06-26T12:42:19;7.38;;;4.25;;
33844;SDS011;20145;43.118;25.694;2023-06-26T12:44:47;6.82;;;4.55;;
33844;SDS011;20145;43.118;25.694;2023-06-26T12:47:13;4.93;;;3.83;;
33844;SDS011;20145;43.118;25.694;2023-06-26T12:49:44;6.40;;;4.68;;
33844;SDS011;20145;43.118;25.694;2023-06-26T12:52:13;6.70;;;3.97;;
33844;SDS011;20145;43.118;25.694;2023-06-26T12:54:42;4.10;;;3.67;;
33844;SDS011;20145;43.118;25.694;2023-06-26T12:57:09;6.30;;;4.25;;
33844;SDS011;20145;43.118;25.694;2023-06-26T12:59:36;9.18;;;5.25;;
33844;SDS011;20145;43.118;25.694;2023-06-26T13:02:02;8.35;;;5.45;;
33844;SDS011;20145;43.118;25.694;2023-06-26T13:04:28;10.32;;;5.70;;
33844;SDS011;20145;43.118;25.694;2023-06-26T13:06:54;19.88;;;7.53;;
33844;SDS011;20145;43.118;25.694;2023-06-26T13:09:21;15.77;;;7.90;;
33844;SDS011;20145;43.118;25.694;2023-06-26T13:11:47;15.82;;;8.30;;
33844;SDS011;20145;43.118;25.694;2023-06-26T13:14:13;12.82;;;6.40;;
33844;SDS011;20145;43.118;25.694;2023-06-26T13:16:39;14.80;;;5.30;;
33844;SDS011;20145;43.118;25.694;2023-06-26T13:19:05;11.95;;;6.00;;
33844;SDS011;20145;43.118;25.694;2023-06-26T13:21:30;10.32;;;6.00;;
33844;SDS011;20145;43.118;25.694;2023-06-26T13:23:56;14.27;;;7.18;;
33844;SDS011;20145;43.118;25.694;2023-06-26T13:26:23;15.15;;;7.28;;
33844;SDS011;20145;43.118;25.694;2023-06-26T13:28:50;8.55;;;5.60;;
33844;SDS011;20145;43.118;25.694;2023-06-26T13:31:16;7.78;;;5.88;;
33844;SDS011;20145;43.118;25.694;2023-06-26T13:33:41;5.28;;;4.25;;
33844;SDS011;20145;43.118;25.694;2023-06-26T13:36:07;4.97;;;3.55;;
33844;SDS011;20145;43.118;25.694;2023-06-26T13:38:33;7.30;;;4.03;;
33844;SDS011;20145;43.118;25.694;2023-06-26T13:40:59;5.78;;;3.63;;
33844;SDS011;20145;43.118;25.694;2023-06-26T13:43:28;5.93;;;3.30;;
33844;SDS011;20145;43.118;25.694;2023-06-26T13:45:54;4.30;;;2.95;;
33844;SDS011;20145;43.118;25.694;2023-06-26T13:48:20;6.10;;;3.33;;
33844;SDS011;20145;43.118;25.694;2023-06-26T13:50:46;4.07;;;2.85;;
33844;SDS011;20145;43.118;25.694;2023-06-26T13:53:12;5.85;;;3.22;;
33844;SDS011;20145;43.118;25.694;2023-06-26T13:55:38;7.72;;;3.35;;
33844;SDS011;20145;43.118;25.694;2023-06-26T13:58:05;3.72;;;3.42;;
33844;SDS011;20145;43.118;25.694;2023-06-26T14:00:32;4.30;;;2.72;;
33844;SDS011;20145;43.118;25.694;2023-06-26T14:03:07;5.22;;;3.60;;
33844;SDS011;20145;43.118;25.694;2023-06-26T14:05:33;6.10;;;3.72;;
33844;SDS011;20145;43.118;25.694;2023-06-26T14:07:59;6.22;;;3.63;;
33844;SDS011;20145;43.118;25.694;2023-06-26T14:10:27;4.35;;;2.75;;
33844;SDS011;20145;43.118;25.694;2023-06-26T14:12:52;3.33;;;3.03;;
33844;SDS011;20145;43.118;25.694;2023-06-26T14:15:18;6.32;;;3.42;;
33844;SDS011;20145;43.118;25.694;2023-06-26T14:17:44;8.40;;;3.58;;
33844;SDS011;20145;43.118;25.694;2023-06-26T14:20:09;6.85;;;3.50;;
33844;SDS011;20145;43.118;25.694;2023-06-26T14:22:38;3.30;;;2.90;;
33844;SDS011;20145;43.118;25.694;2023-06-26T14:25:05;3.75;;;2.97;;
33844;SDS011;20145;43.118;25.694;2023-06-26T14:27:31;3.50;;;2.95;;
33844;SDS011;20145;43.118;25.694;2023-06-26T14:29:57;4.75;;;3.08;;
33844;SDS011;20145;43.118;25.694;2023-06-26T14:32:22;4.22;;;2.50;;
33844;SDS011;20145;43.118;25.694;2023-06-26T14:34:48;5.30;;;2.65;;
33844;SDS011;20145;43.118;25.694;2023-06-26T14:37:13;3.65;;;2.85;;
33844;SDS011;20145;43.118;25.694;2023-06-26T14:39:39;3.22;;;2.92;;
33844;SDS011;20145;43.118;25.694;2023-06-26T14:42:05;3.28;;;2.85;;
33844;SDS011;20145;43.118;25.694;2023-06-26T14:44:30;3.22;;;2.75;;
33844;SDS011;20145;43.118;25.694;2023-06-26T14:46:56;5.25;;;3.20;;
33844;SDS011;20145;43.118;25.694;2023-06-26T14:49:22;5.15;;;3.33;;
33844;SDS011;20145;43.118;25.694;2023-06-26T14:51:47;6.07;;;3.13;;